createdAt,value
2023-05-12T00:00:45.730Z,29.48
2023-05-12T00:01:45.749Z,29.35
2023-05-12T00:02:45.839Z,29.53
2023-05-12T00:03:45.951Z,30.04
2023-05-12T00:04:45.834Z,28.21
2023-05-12T00:05:45.757Z,30.15
2023-05-12T00:06:45.733Z,29.44
2023-05-12T00:07:45.733Z,29.63
2023-05-12T00:08:45.750Z,29.15
2023-05-12T00:09:45.742Z,33.54
2023-05-12T00:10:45.746Z,32.83
2023-05-12T00:11:45.740Z,31.66
2023-05-12T00:12:45.734Z,29.43
2023-05-12T00:13:45.810Z,29.52
2023-05-12T00:14:45.840Z,29.07
2023-05-12T00:15:45.898Z,31.17
2023-05-12T00:16:45.936Z,30.84
2023-05-12T00:17:46.020Z,28.28
2023-05-12T00:18:46.059Z,29.12
2023-05-12T00:19:46.069Z,31.57
2023-05-12T00:20:46.143Z,29.26
2023-05-12T00:21:46.175Z,29.52
2023-05-12T00:22:46.214Z,28.84
2023-05-12T00:23:46.269Z,27.26
2023-05-12T00:24:46.320Z,26.50
2023-05-12T00:25:46.386Z,30.25
2023-05-12T00:26:46.419Z,29.28
2023-05-12T00:27:46.482Z,28.98
2023-05-12T00:28:46.517Z,26.23
2023-05-12T00:29:46.599Z,25.94
2023-05-12T00:30:46.624Z,28.36
2023-05-12T00:31:46.838Z,27.23
2023-05-12T00:32:46.798Z,26.48
2023-05-12T00:33:46.794Z,30.09
2023-05-12T00:34:46.854Z,29.06
2023-05-12T00:35:46.894Z,27.47
2023-05-12T00:36:46.945Z,29.18
2023-05-12T00:37:47.004Z,27.79
2023-05-12T00:38:46.997Z,28.09
2023-05-12T00:39:47.006Z,28.45
2023-05-12T00:40:47.023Z,29.24
2023-05-12T00:41:47.005Z,28.64
2023-05-12T00:42:46.995Z,30.29
2023-05-12T00:43:47.004Z,29.84
2023-05-12T00:44:47.024Z,25.43
2023-05-12T00:45:47.062Z,25.94
2023-05-12T00:46:47.031Z,29.77
2023-05-12T00:47:47.088Z,30.58
2023-05-12T00:48:47.052Z,27.72
2023-05-12T00:49:47.090Z,29.30
2023-05-12T00:50:47.149Z,31.02
2023-05-12T00:51:47.223Z,26.80
2023-05-12T00:52:47.255Z,29.09
2023-05-12T00:53:49.677Z,30.32
2023-05-12T00:54:47.313Z,30.97
2023-05-12T00:55:47.312Z,30.01
2023-05-12T00:56:47.308Z,31.50
2023-05-12T00:57:47.343Z,28.42
2023-05-12T00:58:47.359Z,29.51
2023-05-12T00:59:47.320Z,30.34
2023-05-12T01:00:47.404Z,26.21
2023-05-12T01:01:47.333Z,27.39
2023-05-12T01:02:47.523Z,29.15
2023-05-12T01:03:47.372Z,29.09
2023-05-12T01:04:47.353Z,28.98
2023-05-12T01:05:47.361Z,27.17
2023-05-12T01:06:47.355Z,28.35
2023-05-12T01:07:47.357Z,32.80
2023-05-12T01:08:47.365Z,26.95
2023-05-12T01:09:47.371Z,25.00
2023-05-12T01:10:47.392Z,28.04
2023-05-12T01:11:47.411Z,27.08
2023-05-12T01:12:47.411Z,26.95
2023-05-12T01:13:47.400Z,26.90
2023-05-12T01:14:47.400Z,32.06
2023-05-12T01:15:47.426Z,27.00
2023-05-12T01:16:47.475Z,28.51
2023-05-12T01:17:47.492Z,32.23
2023-05-12T01:18:47.467Z,28.28
2023-05-12T01:19:47.482Z,33.39
2023-05-12T01:20:47.470Z,30.51
2023-05-12T01:21:47.484Z,29.02
2023-05-12T01:22:47.494Z,25.70
2023-05-12T01:23:47.501Z,27.67
2023-05-12T01:24:47.502Z,31.41
2023-05-12T01:25:47.517Z,31.50
2023-05-12T01:26:47.509Z,31.38
2023-05-12T01:27:47.507Z,34.79
2023-05-12T01:28:47.525Z,26.74
2023-05-12T01:29:47.527Z,26.77
2023-05-12T01:30:47.591Z,27.07
2023-05-12T01:31:47.666Z,28.00
2023-05-12T01:32:47.583Z,28.86
2023-05-12T01:33:47.593Z,27.13
2023-05-12T01:34:47.570Z,27.62
2023-05-12T01:35:47.585Z,28.85
2023-05-12T01:36:47.575Z,29.71
2023-05-12T01:37:47.589Z,30.09
2023-05-12T01:38:47.622Z,31.90
2023-05-12T01:39:47.613Z,30.23
2023-05-12T01:40:47.648Z,30.85
2023-05-12T01:41:47.630Z,30.60
2023-05-12T01:42:47.633Z,30.38
2023-05-12T01:43:47.674Z,29.49
2023-05-12T01:44:47.725Z,30.91
2023-05-12T01:45:47.777Z,28.53
2023-05-12T01:46:47.847Z,31.01
2023-05-12T01:47:47.914Z,33.60
2023-05-12T01:48:47.938Z,30.60
2023-05-12T01:49:48.018Z,28.78
2023-05-12T01:50:48.093Z,30.02
2023-05-12T01:51:48.131Z,28.43
2023-05-12T01:52:48.198Z,29.65
2023-05-12T01:53:48.267Z,32.10
2023-05-12T01:54:48.315Z,28.97
2023-05-12T01:55:48.388Z,30.27
2023-05-12T01:56:48.449Z,27.31
2023-05-12T01:57:48.505Z,32.20
2023-05-12T01:58:48.634Z,28.84
2023-05-12T01:59:48.623Z,29.79
2023-05-12T02:00:48.689Z,28.64
2023-05-12T02:01:48.835Z,28.41
2023-05-12T02:02:48.835Z,31.87
2023-05-12T02:03:48.928Z,28.07
2023-05-12T02:04:48.960Z,27.66
2023-05-12T02:05:48.993Z,31.80
2023-05-12T02:06:49.110Z,29.22
2023-05-12T02:07:49.154Z,30.31
2023-05-12T02:08:49.154Z,29.23
2023-05-12T02:09:49.230Z,28.58
2023-05-12T02:10:49.274Z,31.70
2023-05-12T02:11:49.337Z,28.80
2023-05-12T02:12:49.392Z,29.19
2023-05-12T02:13:49.455Z,32.09
2023-05-12T02:14:49.511Z,29.31
2023-05-12T02:15:49.583Z,26.70
2023-05-12T02:16:49.657Z,30.78
2023-05-12T02:17:49.734Z,31.90
2023-05-12T02:18:49.768Z,34.43
2023-05-12T02:19:49.797Z,26.35
2023-05-12T02:20:49.843Z,28.40
2023-05-12T02:21:49.915Z,29.18
2023-05-12T02:22:49.962Z,28.97
2023-05-12T02:23:50.041Z,32.85
2023-05-12T02:24:50.081Z,33.19
2023-05-12T02:25:50.146Z,29.78
2023-05-12T02:26:50.222Z,29.99
2023-05-12T02:27:50.282Z,29.92
2023-05-12T02:28:50.328Z,30.65
2023-05-12T02:29:50.381Z,32.21
2023-05-12T02:30:50.441Z,29.19
2023-05-12T02:31:50.538Z,31.54
2023-05-12T02:32:50.616Z,34.86
2023-05-12T02:33:50.653Z,35.28
2023-05-12T02:34:50.698Z,27.46
2023-05-12T02:35:50.769Z,25.91
2023-05-12T02:36:50.824Z,29.69
2023-05-12T02:37:50.900Z,32.67
2023-05-12T02:38:50.946Z,30.37
2023-05-12T02:39:50.990Z,33.21
2023-05-12T02:40:51.061Z,25.00
2023-05-12T02:41:51.115Z,34.44
2023-05-12T02:42:51.175Z,34.28
2023-05-12T02:43:51.233Z,32.22
2023-05-12T02:44:51.301Z,28.37
2023-05-12T02:45:51.378Z,30.46
2023-05-12T02:46:51.434Z,26.88
2023-05-12T02:47:51.493Z,25.00
2023-05-12T02:48:51.536Z,25.00
2023-05-12T02:49:51.589Z,25.15
2023-05-12T02:50:51.647Z,25.11
2023-05-12T02:51:51.710Z,25.92
2023-05-12T02:52:51.738Z,28.54
2023-05-12T02:53:51.777Z,25.06
2023-05-12T02:54:51.839Z,27.00
2023-05-12T02:55:51.895Z,25.00
2023-05-12T02:56:52.007Z,27.80
2023-05-12T02:57:52.033Z,25.86
2023-05-12T02:58:52.093Z,27.41
2023-05-12T02:59:52.183Z,25.54
2023-05-12T03:01:03.018Z,25.00
2023-05-12T03:01:53.289Z,23.12
2023-05-12T03:02:52.315Z,20.33
2023-05-12T03:03:52.358Z,15.57
2023-05-12T03:04:52.256Z,0.00
2023-05-12T03:05:52.289Z,3.50
2023-05-12T03:06:52.278Z,16.42
2023-05-12T03:07:52.277Z,29.21
2023-05-12T03:08:52.297Z,31.02
2023-05-12T03:09:52.321Z,29.10
2023-05-12T03:10:52.348Z,23.57
2023-05-12T03:11:52.348Z,29.80
2023-05-12T03:12:52.357Z,33.27
2023-05-12T03:13:52.381Z,34.30
2023-05-12T03:14:52.395Z,23.28
2023-05-12T03:15:52.403Z,32.81
2023-05-12T03:16:52.438Z,26.80
2023-05-12T03:17:52.459Z,26.20
2023-05-12T03:18:52.489Z,29.02
2023-05-12T03:19:52.478Z,27.89
2023-05-12T03:20:52.485Z,30.86
2023-05-12T03:21:52.524Z,28.50
2023-05-12T03:22:52.548Z,24.39
2023-05-12T03:23:52.581Z,32.66
2023-05-12T03:24:52.624Z,31.72
2023-05-12T03:25:52.653Z,25.88
2023-05-12T03:26:52.704Z,25.19
2023-05-12T03:27:52.725Z,30.80
2023-05-12T03:28:52.773Z,26.95
2023-05-12T03:29:52.798Z,30.57
2023-05-12T03:30:52.864Z,28.49
2023-05-12T03:31:52.976Z,26.57
2023-05-12T03:32:52.964Z,27.09
2023-05-12T03:33:52.980Z,25.99
2023-05-12T03:34:53.018Z,28.97
2023-05-12T03:35:53.066Z,29.70
2023-05-12T03:36:53.130Z,26.55
2023-05-12T03:37:53.170Z,27.47
2023-05-12T03:38:53.316Z,26.98
2023-05-12T03:39:53.256Z,25.08
2023-05-12T03:40:53.316Z,27.12
2023-05-12T03:41:53.338Z,27.17
2023-05-12T03:42:53.348Z,24.54
2023-05-12T03:43:53.357Z,21.99
2023-05-12T03:44:53.385Z,18.09
2023-05-12T03:45:53.437Z,19.01
2023-05-12T03:46:53.574Z,27.27
2023-05-12T03:47:53.505Z,27.41
2023-05-12T03:48:53.484Z,27.37
2023-05-12T03:49:53.454Z,26.21
2023-05-12T03:50:53.469Z,24.47
2023-05-12T03:51:53.492Z,23.76
2023-05-12T03:52:53.523Z,26.07
2023-05-12T03:53:53.521Z,26.85
2023-05-12T03:54:53.550Z,28.45
2023-05-12T03:55:53.567Z,27.48
2023-05-12T03:56:53.607Z,26.21
2023-05-12T03:57:53.622Z,27.38
2023-05-12T03:58:53.633Z,28.88
2023-05-12T03:59:53.653Z,29.50
2023-05-12T04:00:53.674Z,28.78
2023-05-12T04:01:53.739Z,28.47
2023-05-12T04:02:53.845Z,28.10
2023-05-12T04:03:53.923Z,29.19
2023-05-12T04:04:53.898Z,27.52
2023-05-12T04:05:53.944Z,28.68
2023-05-12T04:06:54.018Z,31.07
2023-05-12T04:07:54.044Z,31.18
2023-05-12T04:08:54.069Z,30.31
2023-05-12T04:09:54.075Z,28.32
2023-05-12T04:10:54.104Z,27.47
2023-05-12T04:11:54.115Z,23.55
2023-05-12T04:12:54.146Z,26.33
2023-05-12T04:13:54.174Z,25.03
2023-05-12T04:14:54.174Z,26.26
2023-05-12T04:15:54.201Z,28.72
2023-05-12T04:16:54.279Z,27.46
2023-05-12T04:17:54.266Z,26.18
2023-05-12T04:18:54.308Z,26.59
2023-05-12T04:19:54.294Z,28.77
2023-05-12T04:20:54.395Z,25.57
2023-05-12T04:21:54.450Z,27.66
2023-05-12T04:22:54.527Z,28.04
2023-05-12T04:23:54.590Z,25.58
2023-05-12T04:24:54.668Z,29.03
2023-05-12T04:25:54.746Z,27.70
2023-05-12T04:26:54.841Z,30.22
2023-05-12T04:27:54.900Z,27.83
2023-05-12T04:28:54.989Z,29.67
2023-05-12T04:29:55.055Z,26.38
2023-05-12T04:30:55.149Z,29.99
2023-05-12T04:31:55.272Z,27.10
2023-05-12T04:32:55.364Z,28.28
2023-05-12T04:33:55.387Z,28.33
2023-05-12T04:34:55.449Z,27.77
2023-05-12T04:35:55.526Z,27.04
2023-05-12T04:36:55.611Z,27.18
2023-05-12T04:37:55.692Z,28.87
2023-05-12T04:38:55.761Z,26.43
2023-05-12T04:39:55.843Z,29.17
2023-05-12T04:40:55.936Z,27.97
2023-05-12T04:41:56.030Z,25.60
2023-05-12T04:42:56.083Z,26.40
2023-05-12T04:44:56.169Z,30.96
2023-05-12T04:45:57.029Z,25.00
2023-05-12T04:46:56.257Z,25.34
2023-05-12T04:47:56.308Z,26.08
2023-05-12T04:48:56.299Z,26.85
2023-05-12T04:49:56.247Z,29.37
2023-05-12T04:50:56.265Z,32.63
2023-05-12T04:51:56.302Z,33.35
2023-05-12T04:52:56.320Z,32.39
2023-05-12T04:53:56.325Z,30.95
2023-05-12T04:54:56.335Z,28.88
2023-05-12T04:55:56.358Z,29.78
2023-05-12T04:56:56.383Z,30.02
2023-05-12T04:57:56.483Z,32.05
2023-05-12T04:58:56.586Z,33.11
2023-05-12T04:59:56.680Z,33.47
2023-05-12T05:00:56.722Z,32.05
2023-05-12T05:01:56.813Z,33.27
2023-05-12T05:02:56.999Z,33.75
2023-05-12T05:03:56.980Z,32.94
2023-05-12T05:04:57.056Z,30.63
2023-05-12T05:05:57.184Z,30.42
2023-05-12T05:06:57.209Z,31.51
2023-05-12T05:07:57.280Z,32.62
2023-05-12T05:08:57.358Z,31.96
2023-05-12T05:09:57.435Z,30.48
2023-05-12T05:10:57.528Z,31.90
2023-05-12T05:11:57.601Z,31.85
2023-05-12T05:12:57.677Z,31.95
2023-05-12T05:13:57.764Z,29.90
2023-05-12T05:14:57.855Z,31.52
2023-05-12T05:15:57.990Z,33.53
2023-05-12T05:16:58.024Z,32.58
2023-05-12T05:17:59.402Z,36.60
2023-05-12T05:18:58.558Z,38.43
2023-05-12T05:19:59.814Z,37.74
2023-05-12T05:20:59.273Z,36.37
2023-05-12T05:21:58.551Z,39.48
2023-05-12T05:22:58.616Z,37.91
2023-05-12T05:23:58.721Z,42.83
2023-05-12T05:24:58.783Z,45.13
2023-05-12T05:25:58.891Z,41.62
2023-05-12T05:26:58.975Z,42.62
2023-05-12T05:27:59.058Z,41.50
2023-05-12T05:28:59.115Z,44.20
2023-05-12T05:29:59.222Z,51.12
2023-05-12T05:30:59.330Z,58.56
2023-05-12T05:31:59.467Z,64.88
2023-05-12T05:32:59.497Z,80.59
2023-05-12T05:33:59.599Z,80.84
2023-05-12T05:34:59.636Z,58.80
2023-05-12T05:35:59.706Z,36.11
2023-05-12T05:36:59.840Z,28.89
2023-05-12T05:37:59.885Z,24.68
2023-05-12T05:39:00.037Z,26.48
2023-05-12T05:40:00.001Z,30.73
2023-05-12T05:41:00.041Z,27.11
2023-05-12T05:42:00.093Z,27.59
2023-05-12T05:43:00.163Z,30.06
2023-05-12T05:44:00.231Z,30.90
2023-05-12T05:45:00.278Z,27.76
2023-05-12T05:46:00.400Z,25.00
2023-05-12T05:47:00.399Z,28.76
2023-05-12T05:48:00.434Z,56.71
2023-05-12T05:49:00.349Z,81.51
2023-05-12T05:50:00.418Z,85.23
2023-05-12T05:51:00.458Z,98.73
2023-05-12T05:52:00.615Z,115.04
2023-05-12T05:53:00.613Z,118.65
2023-05-12T05:54:00.716Z,124.75
2023-05-12T05:55:00.847Z,125.42
2023-05-12T05:56:00.801Z,129.06
2023-05-12T05:57:00.930Z,135.03
2023-05-12T05:58:01.036Z,141.13
2023-05-12T05:59:01.050Z,153.25
2023-05-12T06:00:01.120Z,164.43
2023-05-12T06:01:01.199Z,172.69
2023-05-12T06:02:01.321Z,181.58
2023-05-12T06:03:01.446Z,188.59
2023-05-12T06:04:01.546Z,196.25
2023-05-12T06:05:01.471Z,208.14
2023-05-12T06:06:01.440Z,212.75
2023-05-12T06:07:01.447Z,228.88
2023-05-12T06:08:01.523Z,236.79
2023-05-12T06:09:01.532Z,245.29
2023-05-12T06:10:01.530Z,243.29
2023-05-12T06:11:01.567Z,250.45
2023-05-12T06:12:01.596Z,241.39
2023-05-12T06:13:01.582Z,247.73
2023-05-12T06:14:01.616Z,250.00
2023-05-12T06:15:01.721Z,250.90
2023-05-12T06:16:01.687Z,244.45
2023-05-12T06:17:01.773Z,251.18
2023-05-12T06:18:01.760Z,251.52
2023-05-12T06:19:01.798Z,252.57
2023-05-12T06:20:01.745Z,251.77
2023-05-12T06:21:01.752Z,254.04
2023-05-12T06:22:01.764Z,260.84
2023-05-12T06:23:01.746Z,272.05
2023-05-12T06:24:01.767Z,284.58
2023-05-12T06:25:01.780Z,269.21
2023-05-12T06:26:01.767Z,249.95
2023-05-12T06:27:01.841Z,248.99
2023-05-12T06:28:02.058Z,247.92
2023-05-12T06:29:01.984Z,249.71
2023-05-12T06:30:02.130Z,247.29
2023-05-12T06:31:02.122Z,250.00
2023-05-12T06:32:02.276Z,248.51
2023-05-12T06:33:02.321Z,248.44
2023-05-12T06:34:02.307Z,248.32
2023-05-12T06:35:02.354Z,247.52
2023-05-12T06:36:02.419Z,248.73
2023-05-12T06:37:02.429Z,248.98
2023-05-12T06:38:02.432Z,249.99
2023-05-12T06:39:02.436Z,251.81
2023-05-12T06:40:02.446Z,255.79
2023-05-12T06:41:02.463Z,260.37
2023-05-12T06:42:02.468Z,250.00
2023-05-12T06:43:02.466Z,250.00
2023-05-12T06:44:02.512Z,248.32
2023-05-12T06:45:02.487Z,249.72
2023-05-12T06:46:02.498Z,250.00
2023-05-12T06:47:02.514Z,247.94
2023-05-12T06:48:02.568Z,249.06
2023-05-12T06:49:02.549Z,248.32
2023-05-12T06:50:02.612Z,245.71
2023-05-12T06:51:02.663Z,246.02
2023-05-12T06:52:02.733Z,244.76
2023-05-12T06:53:02.785Z,247.09
2023-05-12T06:54:02.815Z,247.42
2023-05-12T06:55:02.858Z,248.44
2023-05-12T06:56:02.919Z,200.91
2023-05-12T06:57:02.971Z,146.15
2023-05-12T06:58:03.098Z,104.96
2023-05-12T06:59:03.107Z,109.51
2023-05-12T07:00:03.132Z,109.54
2023-05-12T07:01:03.241Z,110.25
2023-05-12T07:02:03.197Z,114.28
2023-05-12T07:03:03.245Z,120.27
2023-05-12T07:04:03.192Z,130.93
2023-05-12T07:05:03.181Z,135.60
2023-05-12T07:06:03.203Z,138.50
2023-05-12T07:07:03.172Z,141.60
2023-05-12T07:08:03.249Z,141.75
2023-05-12T07:09:03.186Z,142.64
2023-05-12T07:10:03.256Z,142.02
2023-05-12T07:11:03.201Z,145.27
2023-05-12T07:12:03.204Z,150.99
2023-05-12T07:13:03.345Z,179.33
2023-05-12T07:14:03.224Z,220.04
2023-05-12T07:15:03.224Z,216.49
2023-05-12T07:16:03.265Z,259.51
2023-05-12T07:17:03.236Z,233.48
2023-05-12T07:18:03.299Z,218.75
2023-05-12T07:19:03.294Z,202.01
2023-05-12T07:20:03.313Z,199.07
2023-05-12T07:21:03.328Z,195.49
2023-05-12T07:22:03.344Z,195.90
2023-05-12T07:23:03.386Z,196.33
2023-05-12T07:24:03.344Z,197.15
2023-05-12T07:25:03.375Z,198.10
2023-05-12T07:26:03.360Z,201.27
2023-05-12T07:27:03.473Z,202.17
2023-05-12T07:28:03.528Z,203.29
2023-05-12T07:29:03.336Z,205.31
2023-05-12T07:30:03.393Z,205.51
2023-05-12T07:31:03.395Z,207.00
2023-05-12T07:32:03.393Z,212.64
2023-05-12T07:33:03.446Z,212.12
2023-05-12T07:34:03.382Z,213.73
2023-05-12T07:35:03.348Z,215.24
2023-05-12T07:36:03.497Z,218.58
2023-05-12T07:37:03.370Z,222.78
2023-05-12T07:38:03.366Z,223.81
2023-05-12T07:39:03.500Z,227.29
2023-05-12T07:40:03.337Z,213.23
2023-05-12T07:41:03.396Z,178.09
2023-05-12T07:42:03.397Z,149.24
2023-05-12T07:43:03.436Z,118.94
2023-05-12T07:44:03.417Z,91.23
2023-05-12T07:45:03.444Z,70.39
2023-05-12T07:46:03.416Z,58.53
2023-05-12T07:47:03.503Z,41.77
2023-05-12T07:48:03.491Z,24.84
2023-05-12T07:49:03.433Z,23.08
2023-05-12T07:50:03.462Z,23.22
2023-05-12T07:51:03.462Z,25.93
2023-05-12T07:52:03.493Z,27.58
2023-05-12T07:53:03.535Z,26.29
2023-05-12T07:54:03.581Z,25.00
2023-05-12T07:55:03.743Z,26.03
2023-05-12T07:56:03.728Z,25.39
2023-05-12T07:57:04.114Z,25.00
2023-05-12T07:58:03.904Z,23.20
2023-05-12T07:59:03.978Z,25.55
2023-05-12T08:00:04.059Z,25.00
2023-05-12T08:01:04.145Z,25.03
2023-05-12T08:02:04.158Z,25.14
2023-05-12T08:03:04.205Z,25.99
2023-05-12T08:04:04.346Z,26.92
2023-05-12T08:05:04.160Z,28.99
2023-05-12T08:06:04.247Z,28.23
2023-05-12T08:07:04.185Z,30.31
2023-05-12T08:08:04.182Z,25.83
2023-05-12T08:09:04.182Z,25.13
2023-05-12T08:10:04.273Z,26.81
2023-05-12T08:11:04.233Z,23.45
2023-05-12T08:12:04.240Z,18.78
2023-05-12T08:13:04.274Z,13.90
2023-05-12T08:14:04.283Z,16.39
2023-05-12T08:15:04.359Z,16.44
2023-05-12T08:16:04.307Z,21.90
2023-05-12T08:17:04.330Z,29.35
2023-05-12T08:18:04.351Z,34.90
2023-05-12T08:19:04.373Z,30.15
2023-05-12T08:20:04.314Z,25.79
2023-05-12T08:21:04.320Z,25.27
2023-05-12T08:22:04.335Z,26.09
2023-05-12T08:23:04.334Z,32.09
2023-05-12T08:24:04.338Z,33.95
2023-05-12T08:25:04.366Z,39.28
2023-05-12T08:26:04.357Z,39.73
2023-05-12T08:27:04.392Z,43.19
2023-05-12T08:28:04.373Z,38.44
2023-05-12T08:29:04.374Z,36.29
2023-05-12T08:30:04.391Z,38.83
2023-05-12T08:31:05.068Z,38.52
2023-05-12T08:32:04.429Z,37.47
2023-05-12T08:33:04.570Z,43.24
2023-05-12T08:34:10.356Z,52.04
2023-05-12T08:35:05.472Z,52.22
2023-05-12T08:36:04.457Z,53.25
2023-05-12T08:37:04.467Z,57.91
2023-05-12T08:38:04.546Z,64.86
2023-05-12T08:39:04.506Z,52.97
2023-05-12T08:40:04.516Z,56.59
2023-05-12T08:41:04.495Z,64.16
2023-05-12T08:42:04.505Z,76.09
2023-05-12T08:43:04.730Z,95.69
2023-05-12T08:44:04.540Z,97.25
2023-05-12T08:45:04.566Z,102.68
2023-05-12T08:46:04.549Z,105.61
2023-05-12T08:47:04.536Z,109.70
2023-05-12T08:48:04.599Z,111.46
2023-05-12T08:49:04.642Z,113.68
2023-05-12T08:50:04.717Z,115.79
2023-05-12T08:51:04.824Z,120.25
2023-05-12T08:52:04.864Z,121.39
2023-05-12T08:53:04.956Z,124.23
2023-05-12T08:54:05.023Z,126.38
2023-05-12T08:55:05.118Z,128.54
2023-05-12T08:58:05.187Z,130.19
2023-05-12T08:59:05.198Z,130.73
2023-05-12T09:00:05.188Z,131.42
2023-05-12T09:01:05.270Z,132.73
2023-05-12T09:02:05.220Z,135.21
2023-05-12T09:03:05.270Z,136.34
2023-05-12T09:04:05.302Z,138.10
2023-05-12T09:05:05.217Z,138.37
2023-05-12T09:06:05.308Z,137.58
2023-05-12T09:07:05.279Z,139.75
2023-05-12T09:08:05.337Z,139.88
2023-05-12T09:09:05.254Z,140.20
2023-05-12T09:10:05.261Z,141.01
2023-05-12T09:11:05.262Z,142.01
2023-05-12T09:12:05.231Z,143.93
2023-05-12T09:13:05.241Z,139.99
2023-05-12T09:14:05.252Z,140.61
2023-05-12T09:15:05.358Z,142.41
2023-05-12T09:16:05.270Z,145.19
2023-05-12T09:17:05.258Z,140.12
2023-05-12T09:18:05.298Z,141.17
2023-05-12T09:19:06.980Z,143.01
2023-05-12T09:20:05.262Z,145.64
2023-05-12T09:21:05.270Z,149.79
2023-05-12T09:22:05.278Z,150.75
2023-05-12T09:23:05.309Z,150.91
2023-05-12T09:24:05.311Z,152.53
2023-05-12T09:25:05.291Z,155.81
2023-05-12T09:26:05.301Z,157.59
2023-05-12T09:27:05.342Z,159.07
2023-05-12T09:28:05.416Z,160.76
2023-05-12T09:29:05.496Z,161.13
2023-05-12T09:30:05.456Z,161.73
2023-05-12T09:31:05.694Z,164.25
2023-05-12T09:32:05.716Z,165.21
2023-05-12T09:33:05.764Z,165.74
2023-05-12T09:34:05.719Z,167.73
2023-05-12T09:35:05.763Z,168.36
2023-05-12T09:36:05.870Z,170.00
2023-05-12T09:37:05.839Z,171.18
2023-05-12T09:38:06.870Z,171.26
2023-05-12T09:39:05.957Z,171.89
2023-05-12T09:40:05.994Z,174.53
2023-05-12T09:41:06.072Z,175.10
2023-05-12T09:42:06.127Z,168.33
2023-05-12T09:43:06.234Z,127.52
2023-05-12T09:44:06.211Z,94.38
2023-05-12T09:45:06.197Z,67.16
2023-05-12T09:46:06.266Z,52.60
2023-05-12T09:47:06.258Z,44.34
2023-05-12T09:48:06.430Z,42.33
2023-05-12T09:49:06.285Z,42.32
2023-05-12T09:50:06.260Z,37.61
2023-05-12T09:51:06.284Z,44.87
2023-05-12T09:52:06.315Z,54.48
2023-05-12T09:53:06.356Z,64.22
2023-05-12T09:54:07.820Z,69.58
2023-05-12T09:55:06.369Z,75.68
2023-05-12T09:56:06.369Z,81.61
2023-05-12T09:57:06.395Z,86.17
2023-05-12T09:58:06.417Z,98.69
2023-05-12T09:59:06.403Z,105.17
2023-05-12T10:00:16.937Z,110.68
2023-05-12T10:02:07.616Z,111.13
2023-05-12T10:03:06.502Z,113.32
2023-05-12T10:04:06.455Z,117.85
2023-05-12T10:05:06.599Z,127.27
2023-05-12T10:06:07.861Z,111.88
2023-05-12T10:07:06.460Z,116.56
2023-05-12T10:08:06.455Z,124.85
2023-05-12T10:09:06.590Z,135.26
2023-05-12T10:10:06.588Z,147.78
2023-05-12T10:11:06.467Z,147.20
2023-05-12T10:12:06.585Z,142.76
2023-05-12T10:13:06.480Z,138.90
2023-05-12T10:14:06.482Z,134.94
2023-05-12T10:15:06.499Z,133.57
2023-05-12T10:16:06.567Z,138.43
2023-05-12T10:17:06.735Z,140.03
2023-05-12T10:18:06.790Z,140.98
2023-05-12T10:19:06.946Z,142.94
2023-05-12T10:20:06.794Z,146.41
2023-05-12T10:21:06.843Z,151.24
2023-05-12T10:22:06.907Z,154.81
2023-05-12T10:23:06.949Z,157.46
2023-05-12T10:24:06.964Z,160.67
2023-05-12T10:25:07.001Z,169.45
2023-05-12T10:26:07.075Z,169.07
2023-05-12T10:27:07.154Z,170.78
2023-05-12T10:28:07.089Z,175.21
2023-05-12T10:29:07.095Z,175.40
2023-05-12T10:30:07.086Z,176.25
2023-05-12T10:31:07.134Z,175.57
2023-05-12T10:32:07.076Z,175.76
2023-05-12T10:33:07.212Z,177.66
2023-05-12T10:34:07.129Z,175.87
2023-05-12T10:35:07.111Z,178.30
2023-05-12T10:36:07.077Z,183.82
2023-05-12T10:37:07.091Z,176.42
2023-05-12T10:38:07.189Z,180.87
2023-05-12T10:39:07.086Z,192.20
2023-05-12T10:40:07.067Z,216.98
2023-05-12T10:41:07.086Z,265.95
2023-05-12T10:42:07.099Z,178.65
2023-05-12T10:43:07.078Z,191.06
2023-05-12T10:44:07.092Z,178.96
2023-05-12T10:45:07.061Z,192.53
2023-05-12T10:46:07.162Z,217.45
2023-05-12T10:47:07.100Z,252.57
2023-05-12T10:48:07.143Z,298.34
2023-05-12T10:49:07.061Z,291.44
2023-05-12T10:50:07.020Z,279.89
2023-05-12T10:51:07.065Z,279.92
2023-05-12T10:52:07.037Z,278.12
2023-05-12T10:53:08.727Z,274.05
2023-05-12T10:54:07.019Z,273.58
2023-05-12T10:55:07.048Z,271.40
2023-05-12T10:56:07.122Z,257.75
2023-05-12T10:57:07.272Z,249.54
2023-05-12T10:58:07.327Z,247.47
2023-05-12T10:59:07.236Z,239.56
2023-05-12T11:00:07.447Z,234.03
2023-05-12T11:01:07.336Z,227.43
2023-05-12T11:02:08.058Z,224.23
2023-05-12T11:04:07.101Z,216.43
2023-05-12T11:05:07.354Z,211.73
2023-05-12T11:06:07.234Z,205.83
2023-05-12T11:07:07.929Z,201.65
2023-05-12T11:08:07.356Z,202.05
2023-05-12T11:09:07.130Z,196.48
2023-05-12T11:10:08.015Z,191.32
2023-05-12T11:11:07.044Z,185.93
2023-05-12T11:12:06.944Z,181.79
2023-05-12T11:13:06.892Z,178.14
2023-05-12T11:14:06.914Z,174.59
2023-05-12T11:15:07.122Z,172.67
2023-05-12T11:16:06.979Z,167.96
2023-05-12T11:17:06.867Z,162.78
2023-05-12T11:18:06.939Z,156.32
2023-05-12T11:19:06.979Z,153.53
2023-05-12T11:20:06.842Z,152.15
2023-05-12T11:21:06.848Z,151.79
2023-05-12T11:22:06.866Z,149.77
2023-05-12T11:23:06.923Z,149.08
2023-05-12T11:24:06.852Z,147.98
2023-05-12T11:25:06.912Z,147.69
2023-05-12T11:26:06.841Z,147.61
2023-05-12T11:27:06.823Z,147.14
2023-05-12T11:28:06.819Z,143.23
2023-05-12T11:29:06.861Z,144.22
2023-05-12T11:30:06.836Z,144.78
2023-05-12T11:31:06.810Z,145.81
2023-05-12T11:32:06.926Z,146.27
2023-05-12T11:33:06.850Z,150.01
2023-05-12T11:34:11.800Z,152.84
2023-05-12T11:35:07.858Z,153.00
2023-05-12T11:36:06.840Z,153.79
2023-05-12T11:37:06.836Z,155.56
2023-05-12T11:38:06.828Z,162.51
2023-05-12T11:39:06.926Z,168.09
2023-05-12T11:40:06.834Z,167.98
2023-05-12T11:41:06.837Z,169.67
2023-05-12T11:42:12.965Z,173.24
2023-05-12T11:43:07.841Z,173.29
2023-05-12T11:44:06.832Z,173.56
2023-05-12T11:45:06.834Z,174.32
2023-05-12T11:46:06.835Z,175.86
2023-05-12T11:47:06.818Z,178.01
2023-05-12T11:48:06.929Z,178.46
2023-05-12T11:49:06.837Z,178.69
2023-05-12T11:50:06.868Z,177.97
2023-05-12T11:51:06.834Z,179.66
2023-05-12T11:52:06.804Z,179.38
2023-05-12T11:53:06.814Z,179.19
2023-05-12T11:54:06.820Z,178.23
2023-05-12T11:55:06.852Z,176.90
2023-05-12T11:56:06.800Z,179.98
2023-05-12T11:57:06.772Z,179.92
2023-05-12T11:58:06.776Z,181.75
2023-05-12T11:59:06.825Z,182.20
2023-05-12T12:00:06.778Z,181.86
2023-05-12T12:01:06.764Z,181.88
2023-05-12T12:02:06.743Z,186.74
2023-05-12T12:03:06.805Z,186.17
2023-05-12T12:04:06.830Z,184.57
2023-05-12T12:05:09.204Z,189.00
2023-05-12T12:06:06.947Z,189.52
2023-05-12T12:07:06.884Z,190.71
2023-05-12T12:08:06.880Z,192.69
2023-05-12T12:09:06.889Z,194.97
2023-05-12T12:10:06.880Z,196.25
2023-05-12T12:11:06.916Z,197.19
2023-05-12T12:12:06.872Z,198.75
2023-05-12T12:13:06.865Z,200.95
2023-05-12T12:14:06.863Z,201.23
2023-05-12T12:15:06.852Z,203.36
2023-05-12T12:16:06.895Z,204.33
2023-05-12T12:17:06.873Z,204.86
2023-05-12T12:18:06.892Z,206.51
2023-05-12T12:19:06.904Z,208.22
2023-05-12T12:20:06.887Z,209.46
2023-05-12T12:21:06.903Z,207.62
2023-05-12T12:22:06.937Z,208.97
2023-05-12T12:23:06.985Z,209.44
2023-05-12T12:24:07.014Z,209.43
2023-05-12T12:25:07.081Z,209.61
2023-05-12T12:26:07.027Z,210.23
2023-05-12T12:27:07.038Z,209.17
2023-05-12T12:28:07.044Z,209.38
2023-05-12T12:29:07.049Z,209.44
2023-05-12T12:30:07.105Z,209.45
2023-05-12T12:31:07.161Z,209.78
2023-05-12T12:32:07.172Z,209.72
2023-05-12T12:33:07.238Z,208.88
2023-05-12T12:34:07.300Z,208.25
2023-05-12T12:35:07.333Z,209.64
2023-05-12T12:36:07.363Z,209.77
2023-05-12T12:37:07.440Z,209.59
2023-05-12T12:38:07.492Z,210.00
2023-05-12T12:39:07.557Z,210.12
2023-05-12T12:40:07.633Z,210.40
2023-05-12T12:41:07.674Z,209.78
2023-05-12T12:42:07.718Z,208.93
2023-05-12T12:43:07.804Z,209.30
2023-05-12T12:44:07.942Z,210.85
2023-05-12T12:45:07.903Z,210.56
2023-05-12T12:46:07.952Z,210.93
2023-05-12T12:47:08.283Z,210.42